sensor_id;sensor_type;location;lat;lon;timestamp;P1;durP1;ratioP1;P2;durP2;ratioP2
43996;SDS011;34318;45.818;15.964;2023-09-19T00:01:40;7.80;;;4.20;;
43996;SDS011;34318;45.818;15.964;2023-09-19T00:04:08;7.10;;;4.35;;
43996;SDS011;34318;45.818;15.964;2023-09-19T00:06:36;5.97;;;4.32;;
43996;SDS011;34318;45.818;15.964;2023-09-19T00:09:04;6.78;;;4.35;;
43996;SDS011;34318;45.818;15.964;2023-09-19T00:11:31;9.00;;;4.45;;
43996;SDS011;34318;45.818;15.964;2023-09-19T00:14:00;7.38;;;4.53;;
43996;SDS011;34318;45.818;15.964;2023-09-19T00:16:27;6.32;;;4.07;;
43996;SDS011;34318;45.818;15.964;2023-09-19T00:18:55;8.32;;;4.50;;
43996;SDS011;34318;45.818;15.964;2023-09-19T00:21:22;9.27;;;4.80;;
43996;SDS011;34318;45.818;15.964;2023-09-19T00:23:50;8.32;;;4.38;;
43996;SDS011;34318;45.818;15.964;2023-09-19T00:26:17;7.90;;;4.45;;
43996;SDS011;34318;45.818;15.964;2023-09-19T00:28:47;10.45;;;4.05;;
43996;SDS011;34318;45.818;15.964;2023-09-19T00:31:14;8.82;;;4.70;;
43996;SDS011;34318;45.818;15.964;2023-09-19T00:33:42;7.95;;;4.07;;
43996;SDS011;34318;45.818;15.964;2023-09-19T00:36:09;6.85;;;4.45;;
43996;SDS011;34318;45.818;15.964;2023-09-19T00:38:36;4.95;;;3.67;;
43996;SDS011;34318;45.818;15.964;2023-09-19T00:41:03;7.60;;;4.60;;
43996;SDS011;34318;45.818;15.964;2023-09-19T00:43:31;6.47;;;4.03;;
43996;SDS011;34318;45.818;15.964;2023-09-19T00:46:01;11.43;;;5.03;;
43996;SDS011;34318;45.818;15.964;2023-09-19T00:48:30;5.30;;;3.95;;
43996;SDS011;34318;45.818;15.964;2023-09-19T00:50:59;7.28;;;4.47;;
43996;SDS011;34318;45.818;15.964;2023-09-19T00:53:31;7.57;;;4.60;;
43996;SDS011;34318;45.818;15.964;2023-09-19T00:56:00;9.88;;;4.78;;
43996;SDS011;34318;45.818;15.964;2023-09-19T00:58:27;5.25;;;3.70;;
43996;SDS011;34318;45.818;15.964;2023-09-19T01:00:59;6.35;;;4.72;;
43996;SDS011;34318;45.818;15.964;2023-09-19T01:03:27;7.32;;;4.82;;
43996;SDS011;34318;45.818;15.964;2023-09-19T01:05:54;6.35;;;3.63;;
43996;SDS011;34318;45.818;15.964;2023-09-19T01:08:21;6.95;;;4.53;;
43996;SDS011;34318;45.818;15.964;2023-09-19T01:10:52;7.60;;;4.28;;
43996;SDS011;34318;45.818;15.964;2023-09-19T01:16:20;8.15;;;4.32;;
43996;SDS011;34318;45.818;15.964;2023-09-19T01:21:22;5.70;;;4.28;;
43996;SDS011;34318;45.818;15.964;2023-09-19T01:24:16;4.95;;;3.88;;
43996;SDS011;34318;45.818;15.964;2023-09-19T01:29:26;7.03;;;4.38;;
43996;SDS011;34318;45.818;15.964;2023-09-19T01:31:59;7.10;;;4.65;;
43996;SDS011;34318;45.818;15.964;2023-09-19T01:37:15;6.55;;;4.82;;
43996;SDS011;34318;45.818;15.964;2023-09-19T01:39:47;7.00;;;4.03;;
43996;SDS011;34318;45.818;15.964;2023-09-19T01:44:49;7.93;;;4.30;;
43996;SDS011;34318;45.818;15.964;2023-09-19T01:47:21;6.20;;;4.30;;
43996;SDS011;34318;45.818;15.964;2023-09-19T01:49:55;8.70;;;4.97;;
43996;SDS011;34318;45.818;15.964;2023-09-19T01:52:23;6.90;;;4.53;;
43996;SDS011;34318;45.818;15.964;2023-09-19T01:54:53;6.88;;;4.10;;
43996;SDS011;34318;45.818;15.964;2023-09-19T01:57:27;8.05;;;4.13;;
43996;SDS011;34318;45.818;15.964;2023-09-19T02:00:03;6.57;;;4.07;;
43996;SDS011;34318;45.818;15.964;2023-09-19T02:02:34;8.98;;;4.78;;
43996;SDS011;34318;45.818;15.964;2023-09-19T02:05:02;5.70;;;4.13;;
43996;SDS011;34318;45.818;15.964;2023-09-19T02:07:30;7.30;;;4.20;;
43996;SDS011;34318;45.818;15.964;2023-09-19T02:09:58;9.07;;;4.25;;
43996;SDS011;34318;45.818;15.964;2023-09-19T02:12:31;7.97;;;3.90;;
43996;SDS011;34318;45.818;15.964;2023-09-19T02:14:59;6.90;;;4.20;;
43996;SDS011;34318;45.818;15.964;2023-09-19T02:17:26;9.55;;;4.68;;
43996;SDS011;34318;45.818;15.964;2023-09-19T02:19:53;8.45;;;4.43;;
43996;SDS011;34318;45.818;15.964;2023-09-19T02:22:21;8.02;;;4.25;;
43996;SDS011;34318;45.818;15.964;2023-09-19T02:24:49;7.50;;;4.18;;
43996;SDS011;34318;45.818;15.964;2023-09-19T02:27:17;6.53;;;4.80;;
43996;SDS011;34318;45.818;15.964;2023-09-19T02:29:44;7.38;;;4.43;;
43996;SDS011;34318;45.818;15.964;2023-09-19T02:32:11;6.30;;;4.07;;
43996;SDS011;34318;45.818;15.964;2023-09-19T02:34:39;4.40;;;3.55;;
43996;SDS011;34318;45.818;15.964;2023-09-19T02:37:06;7.75;;;4.63;;
43996;SDS011;34318;45.818;15.964;2023-09-19T02:39:34;7.38;;;3.97;;
43996;SDS011;34318;45.818;15.964;2023-09-19T02:42:02;8.07;;;4.35;;
43996;SDS011;34318;45.818;15.964;2023-09-19T02:44:32;6.47;;;4.43;;
43996;SDS011;34318;45.818;15.964;2023-09-19T02:47:00;6.82;;;4.03;;
43996;SDS011;34318;45.818;15.964;2023-09-19T02:49:27;7.40;;;4.28;;
43996;SDS011;34318;45.818;15.964;2023-09-19T02:51:55;9.35;;;4.05;;
43996;SDS011;34318;45.818;15.964;2023-09-19T02:54:25;6.20;;;4.32;;
43996;SDS011;34318;45.818;15.964;2023-09-19T02:56:52;8.10;;;4.57;;
43996;SDS011;34318;45.818;15.964;2023-09-19T02:59:20;7.80;;;4.30;;
43996;SDS011;34318;45.818;15.964;2023-09-19T03:01:47;6.88;;;4.10;;
43996;SDS011;34318;45.818;15.964;2023-09-19T03:04:15;4.63;;;4.00;;
43996;SDS011;34318;45.818;15.964;2023-09-19T03:06:46;5.53;;;4.43;;
43996;SDS011;34318;45.818;15.964;2023-09-19T03:09:15;6.15;;;4.45;;
43996;SDS011;34318;45.818;15.964;2023-09-19T03:11:43;7.60;;;4.30;;
43996;SDS011;34318;45.818;15.964;2023-09-19T03:14:12;5.38;;;4.35;;
43996;SDS011;34318;45.818;15.964;2023-09-19T03:16:40;6.78;;;4.43;;
43996;SDS011;34318;45.818;15.964;2023-09-19T03:19:11;6.25;;;4.05;;
43996;SDS011;34318;45.818;15.964;2023-09-19T03:21:38;6.90;;;4.13;;
43996;SDS011;34318;45.818;15.964;2023-09-19T03:24:05;7.53;;;4.07;;
43996;SDS011;34318;45.818;15.964;2023-09-19T03:26:33;7.28;;;4.35;;
43996;SDS011;34318;45.818;15.964;2023-09-19T03:29:03;7.13;;;4.55;;
43996;SDS011;34318;45.818;15.964;2023-09-19T03:31:32;8.18;;;4.35;;
43996;SDS011;34318;45.818;15.964;2023-09-19T03:34:03;6.78;;;4.50;;
43996;SDS011;34318;45.818;15.964;2023-09-19T03:36:30;4.78;;;3.90;;
43996;SDS011;34318;45.818;15.964;2023-09-19T03:38:57;5.68;;;3.92;;
43996;SDS011;34318;45.818;15.964;2023-09-19T03:41:25;4.47;;;3.83;;
43996;SDS011;34318;45.818;15.964;2023-09-19T03:43:52;6.68;;;4.63;;
43996;SDS011;34318;45.818;15.964;2023-09-19T03:46:19;5.30;;;3.95;;
43996;SDS011;34318;45.818;15.964;2023-09-19T03:48:46;5.47;;;4.68;;
43996;SDS011;34318;45.818;15.964;2023-09-19T03:51:14;5.57;;;3.85;;
43996;SDS011;34318;45.818;15.964;2023-09-19T03:53:41;6.15;;;4.82;;
43996;SDS011;34318;45.818;15.964;2023-09-19T03:56:08;9.98;;;4.53;;
43996;SDS011;34318;45.818;15.964;2023-09-19T03:58:36;7.07;;;4.25;;
43996;SDS011;34318;45.818;15.964;2023-09-19T04:01:06;6.70;;;4.57;;
43996;SDS011;34318;45.818;15.964;2023-09-19T04:03:33;5.60;;;4.30;;
43996;SDS011;34318;45.818;15.964;2023-09-19T04:06:15;4.40;;;4.00;;
43996;SDS011;34318;45.818;15.964;2023-09-19T04:08:42;8.18;;;4.78;;
43996;SDS011;34318;45.818;15.964;2023-09-19T04:11:10;9.63;;;4.75;;
43996;SDS011;34318;45.818;15.964;2023-09-19T04:13:37;10.00;;;4.13;;
43996;SDS011;34318;45.818;15.964;2023-09-19T04:16:05;10.45;;;4.75;;
43996;SDS011;34318;45.818;15.964;2023-09-19T04:18:36;7.20;;;4.45;;
43996;SDS011;34318;45.818;15.964;2023-09-19T04:21:06;7.00;;;4.20;;
43996;SDS011;34318;45.818;15.964;2023-09-19T04:23:33;5.65;;;4.20;;
43996;SDS011;34318;45.818;15.964;2023-09-19T04:26:00;6.28;;;3.95;;
43996;SDS011;34318;45.818;15.964;2023-09-19T04:28:30;8.85;;;4.82;;
43996;SDS011;34318;45.818;15.964;2023-09-19T04:30:58;9.23;;;4.40;;
43996;SDS011;34318;45.818;15.964;2023-09-19T04:33:26;9.05;;;4.25;;
43996;SDS011;34318;45.818;15.964;2023-09-19T04:35:54;6.68;;;4.53;;
43996;SDS011;34318;45.818;15.964;2023-09-19T04:38:26;6.13;;;4.32;;
43996;SDS011;34318;45.818;15.964;2023-09-19T04:40:58;5.55;;;4.13;;
43996;SDS011;34318;45.818;15.964;2023-09-19T04:43:25;7.55;;;4.75;;
43996;SDS011;34318;45.818;15.964;2023-09-19T04:45:53;6.38;;;4.13;;
43996;SDS011;34318;45.818;15.964;2023-09-19T04:48:22;6.70;;;4.75;;
43996;SDS011;34318;45.818;15.964;2023-09-19T04:50:52;5.15;;;4.43;;
43996;SDS011;34318;45.818;15.964;2023-09-19T04:53:20;7.72;;;4.60;;
43996;SDS011;34318;45.818;15.964;2023-09-19T04:55:51;6.88;;;4.72;;
43996;SDS011;34318;45.818;15.964;2023-09-19T04:58:22;6.50;;;4.65;;
43996;SDS011;34318;45.818;15.964;2023-09-19T05:00:49;6.72;;;4.32;;
43996;SDS011;34318;45.818;15.964;2023-09-19T05:03:17;6.00;;;4.75;;
43996;SDS011;34318;45.818;15.964;2023-09-19T05:05:46;6.32;;;4.63;;
43996;SDS011;34318;45.818;15.964;2023-09-19T05:08:14;9.07;;;4.93;;
43996;SDS011;34318;45.818;15.964;2023-09-19T05:10:41;7.82;;;5.00;;
43996;SDS011;34318;45.818;15.964;2023-09-19T05:13:08;9.38;;;5.03;;
43996;SDS011;34318;45.818;15.964;2023-09-19T05:15:36;4.57;;;4.18;;
43996;SDS011;34318;45.818;15.964;2023-09-19T05:18:03;6.38;;;4.47;;
43996;SDS011;34318;45.818;15.964;2023-09-19T05:20:32;6.20;;;4.78;;
43996;SDS011;34318;45.818;15.964;2023-09-19T05:23:02;7.22;;;5.32;;
43996;SDS011;34318;45.818;15.964;2023-09-19T05:25:34;7.88;;;4.53;;
43996;SDS011;34318;45.818;15.964;2023-09-19T05:28:06;8.15;;;5.22;;
43996;SDS011;34318;45.818;15.964;2023-09-19T05:30:34;9.25;;;4.40;;
43996;SDS011;34318;45.818;15.964;2023-09-19T05:33:06;7.18;;;4.63;;
43996;SDS011;34318;45.818;15.964;2023-09-19T05:35:34;8.07;;;5.47;;
43996;SDS011;34318;45.818;15.964;2023-09-19T05:38:06;8.10;;;4.95;;
43996;SDS011;34318;45.818;15.964;2023-09-19T05:40:35;7.70;;;5.60;;
43996;SDS011;34318;45.818;15.964;2023-09-19T05:43:05;7.63;;;4.53;;
43996;SDS011;34318;45.818;15.964;2023-09-19T05:45:32;6.60;;;4.60;;
43996;SDS011;34318;45.818;15.964;2023-09-19T05:48:12;11.23;;;5.18;;
43996;SDS011;34318;45.818;15.964;2023-09-19T05:50:42;7.05;;;5.18;;
43996;SDS011;34318;45.818;15.964;2023-09-19T05:53:09;10.32;;;6.15;;
43996;SDS011;34318;45.818;15.964;2023-09-19T05:55:41;11.55;;;8.90;;
43996;SDS011;34318;45.818;15.964;2023-09-19T05:58:09;11.63;;;7.50;;
43996;SDS011;34318;45.818;15.964;2023-09-19T06:00:37;8.35;;;7.05;;
43996;SDS011;34318;45.818;15.964;2023-09-19T06:03:05;10.63;;;7.18;;
43996;SDS011;34318;45.818;15.964;2023-09-19T06:05:33;10.57;;;6.63;;
43996;SDS011;34318;45.818;15.964;2023-09-19T06:08:00;12.52;;;7.72;;
43996;SDS011;34318;45.818;15.964;2023-09-19T06:10:34;13.73;;;7.60;;
43996;SDS011;34318;45.818;15.964;2023-09-19T06:13:02;7.80;;;6.40;;
43996;SDS011;34318;45.818;15.964;2023-09-19T06:15:32;9.10;;;6.00;;
43996;SDS011;34318;45.818;15.964;2023-09-19T06:18:02;12.68;;;6.47;;
43996;SDS011;34318;45.818;15.964;2023-09-19T06:20:32;7.38;;;6.60;;
43996;SDS011;34318;45.818;15.964;2023-09-19T06:22:59;7.30;;;5.90;;
43996;SDS011;34318;45.818;15.964;2023-09-19T06:25:28;8.18;;;5.30;;
43996;SDS011;34318;45.818;15.964;2023-09-19T06:27:56;7.50;;;5.15;;
43996;SDS011;34318;45.818;15.964;2023-09-19T06:30:24;9.18;;;5.57;;
43996;SDS011;34318;45.818;15.964;2023-09-19T06:32:58;6.25;;;4.78;;
43996;SDS011;34318;45.818;15.964;2023-09-19T06:35:27;5.07;;;4.50;;
43996;SDS011;34318;45.818;15.964;2023-09-19T06:37:56;6.85;;;4.75;;
43996;SDS011;34318;45.818;15.964;2023-09-19T06:40:24;8.15;;;4.55;;
43996;SDS011;34318;45.818;15.964;2023-09-19T06:42:52;7.65;;;5.20;;
43996;SDS011;34318;45.818;15.964;2023-09-19T06:45:20;6.53;;;4.45;;
43996;SDS011;34318;45.818;15.964;2023-09-19T06:47:49;4.38;;;3.80;;
43996;SDS011;34318;45.818;15.964;2023-09-19T06:50:17;7.68;;;4.80;;
43996;SDS011;34318;45.818;15.964;2023-09-19T06:52:48;7.68;;;4.72;;
43996;SDS011;34318;45.818;15.964;2023-09-19T06:55:17;5.90;;;4.72;;
43996;SDS011;34318;45.818;15.964;2023-09-19T06:57:47;6.93;;;5.75;;
43996;SDS011;34318;45.818;15.964;2023-09-19T07:00:14;8.35;;;5.50;;
43996;SDS011;34318;45.818;15.964;2023-09-19T07:02:42;8.65;;;5.63;;
43996;SDS011;34318;45.818;15.964;2023-09-19T07:05:09;8.25;;;5.75;;
43996;SDS011;34318;45.818;15.964;2023-09-19T07:07:37;7.13;;;5.18;;
43996;SDS011;34318;45.818;15.964;2023-09-19T07:10:05;5.50;;;4.97;;
43996;SDS011;34318;45.818;15.964;2023-09-19T07:12:33;7.60;;;4.82;;
43996;SDS011;34318;45.818;15.964;2023-09-19T07:15:00;5.40;;;4.90;;
43996;SDS011;34318;45.818;15.964;2023-09-19T07:17:27;5.75;;;4.70;;
43996;SDS011;34318;45.818;15.964;2023-09-19T07:19:56;8.82;;;5.38;;
43996;SDS011;34318;45.818;15.964;2023-09-19T07:22:28;9.13;;;5.75;;
43996;SDS011;34318;45.818;15.964;2023-09-19T07:24:57;7.82;;;5.93;;
43996;SDS011;34318;45.818;15.964;2023-09-19T07:27:24;5.10;;;4.60;;
43996;SDS011;34318;45.818;15.964;2023-09-19T07:29:52;6.25;;;4.80;;
43996;SDS011;34318;45.818;15.964;2023-09-19T07:32:20;4.50;;;3.97;;
43996;SDS011;34318;45.818;15.964;2023-09-19T07:34:47;5.68;;;4.50;;
43996;SDS011;34318;45.818;15.964;2023-09-19T07:37:15;6.15;;;5.20;;
43996;SDS011;34318;45.818;15.964;2023-09-19T07:39:42;6.82;;;5.68;;
43996;SDS011;34318;45.818;15.964;2023-09-19T07:42:11;7.15;;;5.43;;
43996;SDS011;34318;45.818;15.964;2023-09-19T07:44:44;7.70;;;5.88;;
43996;SDS011;34318;45.818;15.964;2023-09-19T07:47:14;8.52;;;6.38;;
43996;SDS011;34318;45.818;15.964;2023-09-19T07:49:41;7.38;;;6.32;;
43996;SDS011;34318;45.818;15.964;2023-09-19T07:52:09;7.38;;;6.32;;
43996;SDS011;34318;45.818;15.964;2023-09-19T07:54:36;6.90;;;5.75;;
43996;SDS011;34318;45.818;15.964;2023-09-19T07:57:05;6.32;;;5.72;;
43996;SDS011;34318;45.818;15.964;2023-09-19T07:59:32;8.07;;;6.10;;
43996;SDS011;34318;45.818;15.964;2023-09-19T08:01:59;7.38;;;5.90;;
43996;SDS011;34318;45.818;15.964;2023-09-19T08:04:27;8.68;;;6.03;;
43996;SDS011;34318;45.818;15.964;2023-09-19T08:06:54;11.75;;;7.30;;
43996;SDS011;34318;45.818;15.964;2023-09-19T08:09:22;10.57;;;7.15;;
43996;SDS011;34318;45.818;15.964;2023-09-19T08:11:51;8.63;;;6.18;;
43996;SDS011;34318;45.818;15.964;2023-09-19T08:14:18;8.38;;;6.55;;
43996;SDS011;34318;45.818;15.964;2023-09-19T08:16:45;9.88;;;8.65;;
43996;SDS011;34318;45.818;15.964;2023-09-19T08:19:13;10.13;;;7.25;;
43996;SDS011;34318;45.818;15.964;2023-09-19T08:21:41;9.15;;;6.07;;
43996;SDS011;34318;45.818;15.964;2023-09-19T08:24:12;8.23;;;5.55;;
43996;SDS011;34318;45.818;15.964;2023-09-19T08:26:40;6.25;;;4.35;;
43996;SDS011;34318;45.818;15.964;2023-09-19T08:29:08;11.93;;;5.05;;
43996;SDS011;34318;45.818;15.964;2023-09-19T08:31:38;7.38;;;4.50;;
43996;SDS011;34318;45.818;15.964;2023-09-19T08:34:05;7.25;;;4.90;;
43996;SDS011;34318;45.818;15.964;2023-09-19T08:36:32;6.60;;;4.93;;
43996;SDS011;34318;45.818;15.964;2023-09-19T08:39:00;6.10;;;5.45;;
43996;SDS011;34318;45.818;15.964;2023-09-19T08:41:27;6.07;;;5.15;;
43996;SDS011;34318;45.818;15.964;2023-09-19T08:43:58;6.07;;;5.35;;
43996;SDS011;34318;45.818;15.964;2023-09-19T08:46:27;5.80;;;4.95;;
43996;SDS011;34318;45.818;15.964;2023-09-19T08:49:01;6.95;;;5.10;;
43996;SDS011;34318;45.818;15.964;2023-09-19T08:51:45;6.38;;;3.97;;
43996;SDS011;34318;45.818;15.964;2023-09-19T08:54:21;6.95;;;4.53;;
43996;SDS011;34318;45.818;15.964;2023-09-19T08:56:49;5.95;;;4.53;;
43996;SDS011;34318;45.818;15.964;2023-09-19T08:59:17;5.10;;;4.35;;
43996;SDS011;34318;45.818;15.964;2023-09-19T09:01:50;5.45;;;3.58;;
43996;SDS011;34318;45.818;15.964;2023-09-19T09:04:20;4.72;;;3.75;;
43996;SDS011;34318;45.818;15.964;2023-09-19T09:06:49;6.00;;;3.20;;
43996;SDS011;34318;45.818;15.964;2023-09-19T09:09:20;3.75;;;3.28;;
43996;SDS011;34318;45.818;15.964;2023-09-19T09:11:50;4.72;;;3.45;;
43996;SDS011;34318;45.818;15.964;2023-09-19T09:14:20;5.18;;;3.00;;
43996;SDS011;34318;45.818;15.964;2023-09-19T09:16:47;3.58;;;2.75;;
43996;SDS011;34318;45.818;15.964;2023-09-19T09:19:15;6.47;;;3.78;;
43996;SDS011;34318;45.818;15.964;2023-09-19T09:26:56;3.83;;;3.20;;
43996;SDS011;34318;45.818;15.964;2023-09-19T09:34:38;5.25;;;4.75;;
43996;SDS011;34318;45.818;15.964;2023-09-19T09:37:05;8.95;;;5.10;;
43996;SDS011;34318;45.818;15.964;2023-09-19T09:39:33;5.85;;;5.22;;
43996;SDS011;34318;45.818;15.964;2023-09-19T09:42:01;5.18;;;4.53;;
43996;SDS011;34318;45.818;15.964;2023-09-19T09:44:32;5.22;;;4.22;;
43996;SDS011;34318;45.818;15.964;2023-09-19T09:47:01;5.30;;;4.80;;
43996;SDS011;34318;45.818;15.964;2023-09-19T09:49:48;5.10;;;4.60;;
43996;SDS011;34318;45.818;15.964;2023-09-19T09:52:21;5.57;;;4.20;;
43996;SDS011;34318;45.818;15.964;2023-09-19T09:55:00;4.50;;;4.00;;
43996;SDS011;34318;45.818;15.964;2023-09-19T09:57:31;4.63;;;3.85;;
43996;SDS011;34318;45.818;15.964;2023-09-19T10:00:00;6.13;;;4.50;;
43996;SDS011;34318;45.818;15.964;2023-09-19T10:02:39;6.15;;;4.30;;
43996;SDS011;34318;45.818;15.964;2023-09-19T10:05:12;4.63;;;3.72;;
43996;SDS011;34318;45.818;15.964;2023-09-19T10:07:40;7.38;;;4.20;;
43996;SDS011;34318;45.818;15.964;2023-09-19T10:10:28;5.82;;;4.28;;
43996;SDS011;34318;45.818;15.964;2023-09-19T10:13:03;5.63;;;5.05;;
43996;SDS011;34318;45.818;15.964;2023-09-19T10:15:34;6.88;;;6.13;;
43996;SDS011;34318;45.818;15.964;2023-09-19T10:18:05;8.15;;;7.45;;
43996;SDS011;34318;45.818;15.964;2023-09-19T10:20:35;14.80;;;13.05;;
43996;SDS011;34318;45.818;15.964;2023-09-19T10:23:09;15.43;;;13.95;;
43996;SDS011;34318;45.818;15.964;2023-09-19T10:25:40;12.02;;;10.82;;
43996;SDS011;34318;45.818;15.964;2023-09-19T10:28:12;18.75;;;16.85;;
43996;SDS011;34318;45.818;15.964;2023-09-19T10:30:43;16.30;;;14.80;;
43996;SDS011;34318;45.818;15.964;2023-09-19T10:33:12;13.90;;;12.60;;
43996;SDS011;34318;45.818;15.964;2023-09-19T10:35:44;12.80;;;11.48;;
43996;SDS011;34318;45.818;15.964;2023-09-19T10:38:12;10.63;;;9.27;;
43996;SDS011;34318;45.818;15.964;2023-09-19T10:40:44;8.82;;;8.02;;
43996;SDS011;34318;45.818;15.964;2023-09-19T10:43:13;9.57;;;8.68;;
43996;SDS011;34318;45.818;15.964;2023-09-19T10:45:45;8.45;;;7.65;;
43996;SDS011;34318;45.818;15.964;2023-09-19T10:48:16;9.90;;;6.85;;
43996;SDS011;34318;45.818;15.964;2023-09-19T10:51:09;6.85;;;6.15;;
43996;SDS011;34318;45.818;15.964;2023-09-19T10:53:51;9.68;;;8.57;;
43996;SDS011;34318;45.818;15.964;2023-09-19T10:56:22;8.73;;;7.85;;
43996;SDS011;34318;45.818;15.964;2023-09-19T10:58:51;8.90;;;8.10;;
43996;SDS011;34318;45.818;15.964;2023-09-19T11:01:18;11.70;;;10.60;;
43996;SDS011;34318;45.818;15.964;2023-09-19T11:03:46;10.32;;;9.20;;
43996;SDS011;34318;45.818;15.964;2023-09-19T11:06:16;12.57;;;9.40;;
43996;SDS011;34318;45.818;15.964;2023-09-19T11:13:48;8.38;;;7.57;;
43996;SDS011;34318;45.818;15.964;2023-09-19T11:16:35;7.82;;;7.13;;
43996;SDS011;34318;45.818;15.964;2023-09-19T11:19:02;7.45;;;6.75;;
43996;SDS011;34318;45.818;15.964;2023-09-19T11:26:39;7.13;;;6.43;;
43996;SDS011;34318;45.818;15.964;2023-09-19T11:29:31;8.02;;;6.65;;
43996;SDS011;34318;45.818;15.964;2023-09-19T11:31:59;8.00;;;7.03;;
43996;SDS011;34318;45.818;15.964;2023-09-19T11:39:38;8.05;;;6.82;;
43996;SDS011;34318;45.818;15.964;2023-09-19T11:44:53;6.68;;;5.85;;
43996;SDS011;34318;45.818;15.964;2023-09-19T11:47:22;7.80;;;5.18;;
43996;SDS011;34318;45.818;15.964;2023-09-19T11:49:51;5.18;;;4.72;;
43996;SDS011;34318;45.818;15.964;2023-09-19T11:52:22;6.47;;;4.85;;
43996;SDS011;34318;45.818;15.964;2023-09-19T11:54:55;6.07;;;5.50;;
43996;SDS011;34318;45.818;15.964;2023-09-19T11:57:23;8.45;;;6.80;;
43996;SDS011;34318;45.818;15.964;2023-09-19T11:59:51;8.70;;;7.82;;
43996;SDS011;34318;45.818;15.964;2023-09-19T12:02:39;8.10;;;7.07;;
43996;SDS011;34318;45.818;15.964;2023-09-19T12:05:09;50.15;;;32.30;;
43996;SDS011;34318;45.818;15.964;2023-09-19T12:07:43;108.93;;;66.07;;
43996;SDS011;34318;45.818;15.964;2023-09-19T12:10:14;131.30;;;72.75;;
43996;SDS011;34318;45.818;15.964;2023-09-19T12:12:48;107.75;;;63.47;;
43996;SDS011;34318;45.818;15.964;2023-09-19T12:15:22;80.68;;;49.25;;
43996;SDS011;34318;45.818;15.964;2023-09-19T12:17:51;63.95;;;38.45;;
43996;SDS011;34318;45.818;15.964;2023-09-19T12:20:18;60.15;;;35.17;;
43996;SDS011;34318;45.818;15.964;2023-09-19T12:22:46;73.90;;;41.67;;
43996;SDS011;34318;45.818;15.964;2023-09-19T12:25:16;73.50;;;40.63;;
43996;SDS011;34318;45.818;15.964;2023-09-19T12:27:45;42.75;;;30.58;;
43996;SDS011;34318;45.818;15.964;2023-09-19T12:30:30;49.50;;;31.08;;
43996;SDS011;34318;45.818;15.964;2023-09-19T12:33:02;42.50;;;29.30;;
43996;SDS011;34318;45.818;15.964;2023-09-19T12:35:31;36.97;;;26.80;;
43996;SDS011;34318;45.818;15.964;2023-09-19T12:38:02;33.40;;;24.25;;
43996;SDS011;34318;45.818;15.964;2023-09-19T12:40:30;43.65;;;24.63;;
43996;SDS011;34318;45.818;15.964;2023-09-19T12:43:00;39.58;;;23.60;;
43996;SDS011;34318;45.818;15.964;2023-09-19T12:45:31;37.05;;;24.00;;
43996;SDS011;34318;45.818;15.964;2023-09-19T12:50:59;36.50;;;22.33;;
43996;SDS011;34318;45.818;15.964;2023-09-19T12:53:29;33.90;;;22.83;;
43996;SDS011;34318;45.818;15.964;2023-09-19T12:55:59;34.30;;;22.00;;
43996;SDS011;34318;45.818;15.964;2023-09-19T12:58:26;36.83;;;23.45;;
43996;SDS011;34318;45.818;15.964;2023-09-19T13:00:57;35.17;;;20.80;;
43996;SDS011;34318;45.818;15.964;2023-09-19T13:05:55;31.88;;;19.58;;
43996;SDS011;34318;45.818;15.964;2023-09-19T13:08:27;24.63;;;16.35;;
43996;SDS011;34318;45.818;15.964;2023-09-19T13:11:05;21.60;;;14.68;;
43996;SDS011;34318;45.818;15.964;2023-09-19T13:13:33;23.45;;;15.98;;
43996;SDS011;34318;45.818;15.964;2023-09-19T13:16:02;24.42;;;13.73;;
43996;SDS011;34318;45.818;15.964;2023-09-19T13:18:44;18.52;;;11.90;;
43996;SDS011;34318;45.818;15.964;2023-09-19T13:21:12;16.85;;;12.75;;
43996;SDS011;34318;45.818;15.964;2023-09-19T13:23:52;21.38;;;11.30;;
43996;SDS011;34318;45.818;15.964;2023-09-19T13:26:20;14.77;;;10.45;;
43996;SDS011;34318;45.818;15.964;2023-09-19T13:28:49;12.32;;;9.45;;
43996;SDS011;34318;45.818;15.964;2023-09-19T13:31:16;14.40;;;9.75;;
43996;SDS011;34318;45.818;15.964;2023-09-19T13:33:45;13.00;;;10.27;;
43996;SDS011;34318;45.818;15.964;2023-09-19T13:36:12;11.13;;;9.20;;
43996;SDS011;34318;45.818;15.964;2023-09-19T13:38:40;10.93;;;9.75;;
43996;SDS011;34318;45.818;15.964;2023-09-19T13:41:13;11.73;;;9.73;;
43996;SDS011;34318;45.818;15.964;2023-09-19T13:43:40;13.93;;;9.85;;
43996;SDS011;34318;45.818;15.964;2023-09-19T13:46:08;12.25;;;9.02;;
43996;SDS011;34318;45.818;15.964;2023-09-19T13:48:42;13.85;;;8.93;;
43996;SDS011;34318;45.818;15.964;2023-09-19T13:51:09;11.65;;;7.68;;
43996;SDS011;34318;45.818;15.964;2023-09-19T13:53:37;8.70;;;7.20;;
43996;SDS011;34318;45.818;15.964;2023-09-19T13:56:04;9.93;;;7.40;;
43996;SDS011;34318;45.818;15.964;2023-09-19T13:58:33;11.52;;;7.30;;
43996;SDS011;34318;45.818;15.964;2023-09-19T14:01:00;10.52;;;6.47;;
43996;SDS011;34318;45.818;15.964;2023-09-19T14:03:27;7.97;;;6.75;;
43996;SDS011;34318;45.818;15.964;2023-09-19T14:05:55;7.95;;;5.80;;
43996;SDS011;34318;45.818;15.964;2023-09-19T14:08:22;9.30;;;7.15;;
43996;SDS011;34318;45.818;15.964;2023-09-19T14:10:50;9.50;;;6.15;;
43996;SDS011;34318;45.818;15.964;2023-09-19T14:13:17;9.15;;;6.20;;
43996;SDS011;34318;45.818;15.964;2023-09-19T14:15:44;8.30;;;6.25;;
43996;SDS011;34318;45.818;15.964;2023-09-19T14:18:11;10.90;;;7.28;;
43996;SDS011;34318;45.818;15.964;2023-09-19T14:20:39;10.02;;;7.55;;
43996;SDS011;34318;45.818;15.964;2023-09-19T14:23:07;15.98;;;7.25;;
43996;SDS011;34318;45.818;15.964;2023-09-19T14:25:34;10.95;;;7.07;;
43996;SDS011;34318;45.818;15.964;2023-09-19T14:28:02;9.60;;;6.57;;
43996;SDS011;34318;45.818;15.964;2023-09-19T14:30:29;11.23;;;7.30;;
43996;SDS011;34318;45.818;15.964;2023-09-19T14:32:57;9.27;;;6.70;;
43996;SDS011;34318;45.818;15.964;2023-09-19T14:35:25;18.33;;;13.07;;
43996;SDS011;34318;45.818;15.964;2023-09-19T14:37:52;28.15;;;25.60;;
43996;SDS011;34318;45.818;15.964;2023-09-19T14:40:20;60.72;;;55.15;;
43996;SDS011;34318;45.818;15.964;2023-09-19T14:42:48;49.97;;;45.60;;
43996;SDS011;34318;45.818;15.964;2023-09-19T14:45:18;46.55;;;42.40;;
43996;SDS011;34318;45.818;15.964;2023-09-19T14:47:46;40.80;;;37.25;;
43996;SDS011;34318;45.818;15.964;2023-09-19T14:50:14;47.05;;;42.92;;
43996;SDS011;34318;45.818;15.964;2023-09-19T14:52:42;55.88;;;50.83;;
43996;SDS011;34318;45.818;15.964;2023-09-19T14:55:10;61.28;;;55.88;;
43996;SDS011;34318;45.818;15.964;2023-09-19T14:57:41;63.35;;;57.92;;
43996;SDS011;34318;45.818;15.964;2023-09-19T15:00:11;67.43;;;61.40;;
43996;SDS011;34318;45.818;15.964;2023-09-19T15:02:39;70.00;;;63.80;;
43996;SDS011;34318;45.818;15.964;2023-09-19T15:05:12;70.15;;;63.97;;
43996;SDS011;34318;45.818;15.964;2023-09-19T15:07:45;73.57;;;66.72;;
43996;SDS011;34318;45.818;15.964;2023-09-19T15:10:12;69.93;;;63.60;;
43996;SDS011;34318;45.818;15.964;2023-09-19T15:12:43;65.97;;;60.15;;
43996;SDS011;34318;45.818;15.964;2023-09-19T15:15:10;63.47;;;57.95;;
43996;SDS011;34318;45.818;15.964;2023-09-19T15:17:39;62.90;;;57.45;;
43996;SDS011;34318;45.818;15.964;2023-09-19T15:20:06;59.47;;;54.28;;
43996;SDS011;34318;45.818;15.964;2023-09-19T15:22:34;56.35;;;51.55;;
43996;SDS011;34318;45.818;15.964;2023-09-19T15:25:01;61.33;;;55.70;;
43996;SDS011;34318;45.818;15.964;2023-09-19T15:27:30;58.63;;;53.50;;
43996;SDS011;34318;45.818;15.964;2023-09-19T15:30:01;60.60;;;55.20;;